Date,TemperatureHighF,TemperatureAvgF,TemperatureLowF,DewpointHighF,DewpointAvgF,DewpointLowF,HumidityHigh,HumidityAvg,HumidityLow,PressureMaxIn,PressureMinIn,WindSpeedMaxMPH,WindSpeedAvgMPH,GustSpeedMaxMPH,PrecipitationSumIn
2013-1-1,53.3,41.6,33.5,39.1,34.0,29.2,88,75,55,30.30,30.24,11,0,11,0.00
2013-1-2,56.7,40.2,28.9,37.2,31.4,25.5,90,73,42,30.28,30.16,4,0,4,0.00
2013-1-3,55.4,40.0,29.5,39.8,32.5,26.0,90,76,49,30.30,30.19,5,0,5,0.00
2013-1-4,58.1,44.6,32.6,39.2,35.0,29.4,92,71,45,30.32,30.20,6,0,6,0.00
2013-1-5,54.6,49.8,47.0,46.1,41.7,37.4,90,74,66,30.24,30.10,10,0,10,0.05
2013-1-6,48.4,45.0,38.3,44.7,41.5,35.0,91,88,81,30.22,30.08,7,0,7,0.10
2013-1-7,57.2,45.3,34.4,47.9,39.9,31.5,91,82,69,30.29,30.18,5,0,5,0.00
2013-1-8,60.4,47.5,37.5,48.4,41.1,34.6,92,79,60,30.26,30.15,5,0,5,0.00
2013-1-9,55.1,44.8,38.1,47.9,40.3,34.9,91,84,73,30.18,30.04,12,0,12,0.01
2013-1-10,51.2,42.7,35.9,38.8,34.7,31.7,90,74,55,30.23,30.10,11,0,11,0.00
2013-1-11,52.2,41.7,32.2,39.2,34.2,27.9,88,75,54,30.29,30.16,11,0,11,0.00
2013-1-12,50.5,41.9,30.1,35.6,26.5,20.8,90,58,33,30.28,30.17,6,0,6,0.00
2013-1-13,49.4,42.3,26.5,29.0,25.0,19.2,87,53,31,30.31,30.17,7,0,7,0.00
2013-1-14,50.1,36.8,26.2,25.5,21.9,15.5,83,58,29,30.44,30.26,6,0,7,0.01
2013-1-15,54.0,39.2,27.8,30.8,26.6,22.5,85,63,35,30.51,30.43,7,0,7,0.00
2013-1-16,56.9,40.4,28.6,34.9,29.5,24.2,88,67,39,30.47,30.29,4,0,4,0.00
2013-1-17,62.4,43.2,29.5,39.4,32.3,25.6,88,68,40,30.30,30.17,6,0,6,0.00
2013-1-18,64.1,45.5,31.7,41.9,34.7,28.0,90,69,38,30.26,30.15,4,0,5,0.00
2013-1-19,63.9,45.4,30.7,43.2,34.7,26.7,88,69,41,30.28,30.17,5,0,5,0.00
2013-1-20,64.9,45.7,31.4,41.0,33.4,27.7,89,66,32,30.26,30.15,4,0,4,0.00
2013-1-21,63.6,45.1,30.2,41.0,33.9,25.8,92,68,36,30.21,30.10,6,0,6,0.00
2013-1-22,61.4,46.7,32.8,42.8,36.4,28.8,89,69,41,30.13,30.02,5,0,5,0.00
2013-1-23,52.6,48.5,44.7,48.2,43.6,39.1,88,83,80,30.11,29.98,3,0,3,0.05
2013-1-24,56.4,52.2,48.9,50.9,48.3,45.7,90,87,80,30.22,30.09,4,0,4,0.02
2013-1-25,64.2,55.8,49.9,55.2,50.5,45.6,91,83,71,30.22,30.07,6,0,6,0.01
2013-1-26,59.0,49.6,42.8,47.4,41.7,37.4,90,76,51,30.12,30.04,13,0,13,0.00
2013-1-27,56.1,46.5,38.4,39.3,37.1,30.1,87,72,39,30.20,30.11,10,0,10,0.00
2013-1-28,57.9,47.0,38.0,43.5,39.0,33.6,92,75,54,30.33,30.20,9,0,9,0.00
2013-1-29,57.9,46.8,38.0,44.2,39.0,33.9,90,75,55,30.39,30.30,9,0,9,0.00
2013-1-30,67.8,50.3,37.3,45.1,38.9,33.6,90,68,40,30.37,30.28,6,0,6,0.00
2013-1-31,65.0,48.6,35.0,46.7,39.2,31.0,89,72,48,30.32,30.20,6,0,6,0.00